sensor_id;sensor_type;location;lat;lon;timestamp;P1;durP1;ratioP1;P2;durP2;ratioP2
44824;SDS011;30542;47.928;2.138;2024-01-07T00:04:21;0.57;;;0.27;;
44824;SDS011;30542;47.928;2.138;2024-01-07T00:09:21;0.70;;;0.20;;
44824;SDS011;30542;47.928;2.138;2024-01-07T00:14:21;1.55;;;0.40;;
44824;SDS011;30542;47.928;2.138;2024-01-07T00:19:22;1.23;;;0.50;;
44824;SDS011;30542;47.928;2.138;2024-01-07T00:24:22;3.13;;;0.50;;
44824;SDS011;30542;47.928;2.138;2024-01-07T00:29:25;1.50;;;0.50;;
44824;SDS011;30542;47.928;2.138;2024-01-07T00:34:26;1.60;;;0.50;;
44824;SDS011;30542;47.928;2.138;2024-01-07T00:39:26;1.37;;;0.50;;
44824;SDS011;30542;47.928;2.138;2024-01-07T00:44:27;0.88;;;0.30;;
44824;SDS011;30542;47.928;2.138;2024-01-07T00:49:27;0.47;;;0.30;;
44824;SDS011;30542;47.928;2.138;2024-01-07T00:54:28;0.93;;;0.30;;
44824;SDS011;30542;47.928;2.138;2024-01-07T00:59:28;0.80;;;0.30;;
44824;SDS011;30542;47.928;2.138;2024-01-07T01:04:29;1.95;;;0.30;;
44824;SDS011;30542;47.928;2.138;2024-01-07T01:09:30;1.73;;;0.50;;
44824;SDS011;30542;47.928;2.138;2024-01-07T01:14:30;0.83;;;0.40;;
44824;SDS011;30542;47.928;2.138;2024-01-07T01:19:30;0.40;;;0.30;;
44824;SDS011;30542;47.928;2.138;2024-01-07T01:24:31;0.87;;;0.40;;
44824;SDS011;30542;47.928;2.138;2024-01-07T01:29:31;0.80;;;0.30;;
44824;SDS011;30542;47.928;2.138;2024-01-07T01:34:32;1.27;;;0.30;;
44824;SDS011;30542;47.928;2.138;2024-01-07T01:39:32;1.25;;;0.40;;
44824;SDS011;30542;47.928;2.138;2024-01-07T01:44:33;1.20;;;0.33;;
44824;SDS011;30542;47.928;2.138;2024-01-07T01:49:34;0.80;;;0.30;;
44824;SDS011;30542;47.928;2.138;2024-01-07T01:54:36;0.70;;;0.30;;
44824;SDS011;30542;47.928;2.138;2024-01-07T01:59:37;1.35;;;0.30;;
44824;SDS011;30542;47.928;2.138;2024-01-07T02:04:37;1.13;;;0.20;;
44824;SDS011;30542;47.928;2.138;2024-01-07T02:09:38;1.30;;;0.30;;
44824;SDS011;30542;47.928;2.138;2024-01-07T02:14:40;0.63;;;0.30;;
44824;SDS011;30542;47.928;2.138;2024-01-07T02:19:40;0.90;;;0.20;;
44824;SDS011;30542;47.928;2.138;2024-01-07T02:24:40;0.57;;;0.27;;
44824;SDS011;30542;47.928;2.138;2024-01-07T02:29:41;1.20;;;0.40;;
44824;SDS011;30542;47.928;2.138;2024-01-07T02:34:41;0.80;;;0.20;;
44824;SDS011;30542;47.928;2.138;2024-01-07T02:39:41;0.93;;;0.20;;
44824;SDS011;30542;47.928;2.138;2024-01-07T02:44:42;1.23;;;0.30;;
44824;SDS011;30542;47.928;2.138;2024-01-07T02:49:42;0.82;;;0.20;;
44824;SDS011;30542;47.928;2.138;2024-01-07T02:54:43;0.87;;;0.20;;
44824;SDS011;30542;47.928;2.138;2024-01-07T02:59:43;0.93;;;0.33;;
44824;SDS011;30542;47.928;2.138;2024-01-07T03:04:43;0.90;;;0.23;;
44824;SDS011;30542;47.928;2.138;2024-01-07T03:09:44;0.55;;;0.22;;
44824;SDS011;30542;47.928;2.138;2024-01-07T03:14:44;0.77;;;0.30;;
44824;SDS011;30542;47.928;2.138;2024-01-07T03:19:45;1.03;;;0.30;;
44824;SDS011;30542;47.928;2.138;2024-01-07T03:24:45;0.90;;;0.30;;
44824;SDS011;30542;47.928;2.138;2024-01-07T03:29:45;0.73;;;0.20;;
44824;SDS011;30542;47.928;2.138;2024-01-07T03:34:46;0.40;;;0.20;;
44824;SDS011;30542;47.928;2.138;2024-01-07T03:39:47;0.70;;;0.13;;
44824;SDS011;30542;47.928;2.138;2024-01-07T03:44:47;0.40;;;0.20;;
44824;SDS011;30542;47.928;2.138;2024-01-07T03:49:48;0.40;;;0.23;;
44824;SDS011;30542;47.928;2.138;2024-01-07T03:54:48;0.63;;;0.10;;
44824;SDS011;30542;47.928;2.138;2024-01-07T03:59:48;0.40;;;0.30;;
44824;SDS011;30542;47.928;2.138;2024-01-07T04:04:49;1.42;;;0.30;;
44824;SDS011;30542;47.928;2.138;2024-01-07T04:09:49;0.50;;;0.10;;
44824;SDS011;30542;47.928;2.138;2024-01-07T04:14:49;1.43;;;0.20;;
44824;SDS011;30542;47.928;2.138;2024-01-07T04:19:51;0.43;;;0.23;;
44824;SDS011;30542;47.928;2.138;2024-01-07T04:24:52;0.77;;;0.10;;
44824;SDS011;30542;47.928;2.138;2024-01-07T04:29:52;0.63;;;0.15;;
44824;SDS011;30542;47.928;2.138;2024-01-07T04:34:53;1.10;;;0.20;;
44824;SDS011;30542;47.928;2.138;2024-01-07T04:39:53;0.98;;;0.22;;
44824;SDS011;30542;47.928;2.138;2024-01-07T04:44:54;0.97;;;0.30;;
44824;SDS011;30542;47.928;2.138;2024-01-07T04:49:54;1.17;;;0.30;;
44824;SDS011;30542;47.928;2.138;2024-01-07T04:54:55;0.70;;;0.10;;
44824;SDS011;30542;47.928;2.138;2024-01-07T04:59:56;1.67;;;0.20;;
44824;SDS011;30542;47.928;2.138;2024-01-07T05:04:57;0.33;;;0.20;;
44824;SDS011;30542;47.928;2.138;2024-01-07T05:09:58;1.43;;;0.30;;
44824;SDS011;30542;47.928;2.138;2024-01-07T05:14:58;0.77;;;0.10;;
44824;SDS011;30542;47.928;2.138;2024-01-07T05:19:58;0.70;;;0.20;;
44824;SDS011;30542;47.928;2.138;2024-01-07T05:24:59;0.50;;;0.17;;
44824;SDS011;30542;47.928;2.138;2024-01-07T05:30:00;0.20;;;0.10;;
44824;SDS011;30542;47.928;2.138;2024-01-07T05:35:00;0.33;;;0.20;;
44824;SDS011;30542;47.928;2.138;2024-01-07T05:40:01;0.40;;;0.13;;
44824;SDS011;30542;47.928;2.138;2024-01-07T05:45:02;0.30;;;0.10;;
44824;SDS011;30542;47.928;2.138;2024-01-07T05:50:02;0.57;;;0.20;;
44824;SDS011;30542;47.928;2.138;2024-01-07T05:55:04;0.98;;;0.20;;
44824;SDS011;30542;47.928;2.138;2024-01-07T06:00:05;0.60;;;0.20;;
44824;SDS011;30542;47.928;2.138;2024-01-07T06:05:06;0.75;;;0.30;;
44824;SDS011;30542;47.928;2.138;2024-01-07T06:10:07;0.63;;;0.20;;
44824;SDS011;30542;47.928;2.138;2024-01-07T06:15:08;0.57;;;0.20;;
44824;SDS011;30542;47.928;2.138;2024-01-07T06:20:09;0.75;;;0.20;;
44824;SDS011;30542;47.928;2.138;2024-01-07T06:25:10;0.63;;;0.10;;
44824;SDS011;30542;47.928;2.138;2024-01-07T06:30:10;0.85;;;0.20;;
44824;SDS011;30542;47.928;2.138;2024-01-07T06:35:11;0.32;;;0.10;;
44824;SDS011;30542;47.928;2.138;2024-01-07T06:40:12;0.80;;;0.20;;
44824;SDS011;30542;47.928;2.138;2024-01-07T06:45:12;0.55;;;0.20;;
44824;SDS011;30542;47.928;2.138;2024-01-07T06:50:13;1.33;;;0.10;;
44824;SDS011;30542;47.928;2.138;2024-01-07T06:55:13;0.93;;;0.20;;
44824;SDS011;30542;47.928;2.138;2024-01-07T07:00:14;0.93;;;0.20;;
44824;SDS011;30542;47.928;2.138;2024-01-07T07:05:15;0.50;;;0.20;;
44824;SDS011;30542;47.928;2.138;2024-01-07T07:10:15;0.40;;;0.23;;
44824;SDS011;30542;47.928;2.138;2024-01-07T07:15:16;0.83;;;0.20;;
44824;SDS011;30542;47.928;2.138;2024-01-07T07:20:17;2.15;;;0.30;;
44824;SDS011;30542;47.928;2.138;2024-01-07T07:25:17;1.20;;;0.20;;
44824;SDS011;30542;47.928;2.138;2024-01-07T07:30:18;1.40;;;0.30;;
44824;SDS011;30542;47.928;2.138;2024-01-07T07:35:18;1.40;;;0.10;;
44824;SDS011;30542;47.928;2.138;2024-01-07T07:40:19;2.10;;;0.20;;
44824;SDS011;30542;47.928;2.138;2024-01-07T07:45:19;1.80;;;0.20;;
44824;SDS011;30542;47.928;2.138;2024-01-07T07:50:19;1.03;;;0.13;;
44824;SDS011;30542;47.928;2.138;2024-01-07T07:55:21;1.20;;;0.10;;
44824;SDS011;30542;47.928;2.138;2024-01-07T08:00:22;3.50;;;0.20;;
44824;SDS011;30542;47.928;2.138;2024-01-07T08:05:22;1.10;;;0.10;;
44824;SDS011;30542;47.928;2.138;2024-01-07T08:10:23;2.10;;;0.23;;
44824;SDS011;30542;47.928;2.138;2024-01-07T08:15:23;3.50;;;0.20;;
44824;SDS011;30542;47.928;2.138;2024-01-07T08:20:23;0.93;;;0.20;;
44824;SDS011;30542;47.928;2.138;2024-01-07T08:25:24;1.27;;;0.30;;
44824;SDS011;30542;47.928;2.138;2024-01-07T08:30:24;1.27;;;0.23;;
44824;SDS011;30542;47.928;2.138;2024-01-07T08:35:24;0.93;;;0.47;;
44824;SDS011;30542;47.928;2.138;2024-01-07T08:40:25;0.88;;;0.30;;
44824;SDS011;30542;47.928;2.138;2024-01-07T08:45:25;2.83;;;0.50;;
44824;SDS011;30542;47.928;2.138;2024-01-07T08:50:26;3.13;;;0.50;;
44824;SDS011;30542;47.928;2.138;2024-01-07T08:55:26;3.40;;;0.80;;
44824;SDS011;30542;47.928;2.138;2024-01-07T09:00:27;2.33;;;1.13;;
44824;SDS011;30542;47.928;2.138;2024-01-07T09:05:31;2.72;;;1.00;;
44824;SDS011;30542;47.928;2.138;2024-01-07T09:10:31;3.97;;;0.80;;
44824;SDS011;30542;47.928;2.138;2024-01-07T09:15:32;6.55;;;1.10;;
44824;SDS011;30542;47.928;2.138;2024-01-07T09:20:32;6.97;;;0.88;;
44824;SDS011;30542;47.928;2.138;2024-01-07T09:25:33;3.78;;;1.38;;
44824;SDS011;30542;47.928;2.138;2024-01-07T09:30:34;8.93;;;1.70;;
44824;SDS011;30542;47.928;2.138;2024-01-07T09:35:34;10.37;;;1.90;;
44824;SDS011;30542;47.928;2.138;2024-01-07T09:40:34;10.23;;;1.45;;
44824;SDS011;30542;47.928;2.138;2024-01-07T09:45:38;8.60;;;1.97;;
44824;SDS011;30542;47.928;2.138;2024-01-07T09:50:41;7.45;;;1.45;;
44824;SDS011;30542;47.928;2.138;2024-01-07T10:01:08;7.30;;;1.40;;
44824;SDS011;30542;47.928;2.138;2024-01-07T10:06:10;6.13;;;1.10;;
44824;SDS011;30542;47.928;2.138;2024-01-07T10:11:12;7.50;;;1.48;;
44824;SDS011;30542;47.928;2.138;2024-01-07T10:16:14;8.95;;;1.40;;
44824;SDS011;30542;47.928;2.138;2024-01-07T10:21:14;6.47;;;0.70;;
44824;SDS011;30542;47.928;2.138;2024-01-07T10:26:15;7.60;;;1.13;;
44824;SDS011;30542;47.928;2.138;2024-01-07T10:31:15;18.42;;;4.20;;
44824;SDS011;30542;47.928;2.138;2024-01-07T10:36:16;19.52;;;4.10;;
44824;SDS011;30542;47.928;2.138;2024-01-07T10:41:18;21.45;;;4.40;;
44824;SDS011;30542;47.928;2.138;2024-01-07T10:46:18;15.35;;;3.67;;
44824;SDS011;30542;47.928;2.138;2024-01-07T10:51:20;12.15;;;2.80;;
44824;SDS011;30542;47.928;2.138;2024-01-07T10:56:22;9.77;;;2.50;;
44824;SDS011;30542;47.928;2.138;2024-01-07T11:01:24;7.93;;;1.95;;
44824;SDS011;30542;47.928;2.138;2024-01-07T11:06:31;7.93;;;2.10;;
44824;SDS011;30542;47.928;2.138;2024-01-07T11:11:40;4.60;;;1.50;;
44824;SDS011;30542;47.928;2.138;2024-01-07T11:16:42;5.30;;;1.13;;
44824;SDS011;30542;47.928;2.138;2024-01-07T11:21:44;6.40;;;2.08;;
44824;SDS011;30542;47.928;2.138;2024-01-07T11:26:44;8.60;;;1.80;;
44824;SDS011;30542;47.928;2.138;2024-01-07T11:31:46;7.53;;;2.42;;
44824;SDS011;30542;47.928;2.138;2024-01-07T11:36:47;4.45;;;1.65;;
44824;SDS011;30542;47.928;2.138;2024-01-07T11:41:48;7.32;;;1.73;;
44824;SDS011;30542;47.928;2.138;2024-01-07T11:46:50;6.60;;;2.55;;
44824;SDS011;30542;47.928;2.138;2024-01-07T11:51:50;4.95;;;1.98;;
44824;SDS011;30542;47.928;2.138;2024-01-07T11:56:51;4.63;;;1.37;;
44824;SDS011;30542;47.928;2.138;2024-01-07T12:01:51;6.82;;;1.83;;
44824;SDS011;30542;47.928;2.138;2024-01-07T12:06:52;3.50;;;1.00;;
44824;SDS011;30542;47.928;2.138;2024-01-07T12:11:53;1.87;;;0.70;;
44824;SDS011;30542;47.928;2.138;2024-01-07T12:16:54;2.45;;;1.10;;
44824;SDS011;30542;47.928;2.138;2024-01-07T12:22:02;2.90;;;0.85;;
44824;SDS011;30542;47.928;2.138;2024-01-07T12:27:04;3.22;;;0.90;;
44824;SDS011;30542;47.928;2.138;2024-01-07T12:32:05;2.35;;;0.93;;
44824;SDS011;30542;47.928;2.138;2024-01-07T12:37:06;4.32;;;1.02;;
44824;SDS011;30542;47.928;2.138;2024-01-07T12:42:06;1.40;;;0.80;;
44824;SDS011;30542;47.928;2.138;2024-01-07T12:47:07;1.67;;;0.88;;
44824;SDS011;30542;47.928;2.138;2024-01-07T12:52:08;1.00;;;0.57;;
44824;SDS011;30542;47.928;2.138;2024-01-07T12:57:09;1.48;;;0.70;;
44824;SDS011;30542;47.928;2.138;2024-01-07T13:02:09;1.43;;;0.60;;
44824;SDS011;30542;47.928;2.138;2024-01-07T13:07:09;3.80;;;0.63;;
44824;SDS011;30542;47.928;2.138;2024-01-07T13:12:10;2.17;;;0.60;;
44824;SDS011;30542;47.928;2.138;2024-01-07T13:17:11;0.90;;;0.70;;
44824;SDS011;30542;47.928;2.138;2024-01-07T13:22:11;2.17;;;0.80;;
44824;SDS011;30542;47.928;2.138;2024-01-07T13:27:12;1.93;;;1.13;;
44824;SDS011;30542;47.928;2.138;2024-01-07T13:32:13;1.10;;;0.90;;
44824;SDS011;30542;47.928;2.138;2024-01-07T13:37:19;1.38;;;1.08;;
44824;SDS011;30542;47.928;2.138;2024-01-07T13:42:20;1.35;;;0.80;;
44824;SDS011;30542;47.928;2.138;2024-01-07T13:47:20;1.53;;;1.10;;
44824;SDS011;30542;47.928;2.138;2024-01-07T13:52:21;2.58;;;1.20;;
44824;SDS011;30542;47.928;2.138;2024-01-07T13:57:21;3.00;;;0.90;;
44824;SDS011;30542;47.928;2.138;2024-01-07T14:02:22;1.60;;;1.30;;
44824;SDS011;30542;47.928;2.138;2024-01-07T14:07:22;1.17;;;0.97;;
44824;SDS011;30542;47.928;2.138;2024-01-07T14:12:24;3.60;;;1.60;;
44824;SDS011;30542;47.928;2.138;2024-01-07T14:17:25;1.53;;;1.13;;
44824;SDS011;30542;47.928;2.138;2024-01-07T14:22:25;1.35;;;1.20;;
44824;SDS011;30542;47.928;2.138;2024-01-07T14:27:26;1.30;;;1.00;;
44824;SDS011;30542;47.928;2.138;2024-01-07T14:32:27;3.38;;;1.88;;
44824;SDS011;30542;47.928;2.138;2024-01-07T14:37:27;6.50;;;1.87;;
44824;SDS011;30542;47.928;2.138;2024-01-07T14:42:28;4.38;;;1.60;;
44824;SDS011;30542;47.928;2.138;2024-01-07T14:47:28;3.05;;;1.30;;
44824;SDS011;30542;47.928;2.138;2024-01-07T14:52:28;2.53;;;1.30;;
44824;SDS011;30542;47.928;2.138;2024-01-07T14:57:29;2.27;;;1.50;;
44824;SDS011;30542;47.928;2.138;2024-01-07T15:02:29;3.20;;;1.47;;
44824;SDS011;30542;47.928;2.138;2024-01-07T15:07:29;3.70;;;1.30;;
44824;SDS011;30542;47.928;2.138;2024-01-07T15:12:30;4.80;;;1.70;;
44824;SDS011;30542;47.928;2.138;2024-01-07T15:17:35;4.32;;;1.88;;
44824;SDS011;30542;47.928;2.138;2024-01-07T15:22:35;3.25;;;2.17;;
44824;SDS011;30542;47.928;2.138;2024-01-07T15:27:36;3.10;;;2.10;;
44824;SDS011;30542;47.928;2.138;2024-01-07T15:32:36;2.08;;;1.35;;
44824;SDS011;30542;47.928;2.138;2024-01-07T15:37:37;3.60;;;2.72;;
44824;SDS011;30542;47.928;2.138;2024-01-07T15:42:38;2.38;;;2.13;;
44824;SDS011;30542;47.928;2.138;2024-01-07T15:47:38;2.67;;;2.15;;
44824;SDS011;30542;47.928;2.138;2024-01-07T15:52:39;2.50;;;2.27;;
44824;SDS011;30542;47.928;2.138;2024-01-07T15:57:49;3.45;;;2.50;;
44824;SDS011;30542;47.928;2.138;2024-01-07T16:02:49;3.40;;;3.00;;
44824;SDS011;30542;47.928;2.138;2024-01-07T16:07:51;2.63;;;2.42;;
44824;SDS011;30542;47.928;2.138;2024-01-07T16:12:52;3.63;;;2.65;;
44824;SDS011;30542;47.928;2.138;2024-01-07T16:17:52;2.50;;;2.30;;
44824;SDS011;30542;47.928;2.138;2024-01-07T16:22:53;3.25;;;2.90;;
44824;SDS011;30542;47.928;2.138;2024-01-07T16:27:53;3.03;;;2.73;;
44824;SDS011;30542;47.928;2.138;2024-01-07T16:32:54;3.42;;;3.13;;
44824;SDS011;30542;47.928;2.138;2024-01-07T16:37:55;3.30;;;3.00;;
44824;SDS011;30542;47.928;2.138;2024-01-07T16:42:55;3.40;;;3.10;;
44824;SDS011;30542;47.928;2.138;2024-01-07T16:47:56;3.50;;;3.22;;
44824;SDS011;30542;47.928;2.138;2024-01-07T16:52:56;3.40;;;3.08;;
44824;SDS011;30542;47.928;2.138;2024-01-07T16:57:57;3.33;;;2.97;;
44824;SDS011;30542;47.928;2.138;2024-01-07T17:02:57;3.33;;;3.03;;
44824;SDS011;30542;47.928;2.138;2024-01-07T17:07:57;4.10;;;3.50;;
44824;SDS011;30542;47.928;2.138;2024-01-07T17:12:58;3.60;;;3.30;;
44824;SDS011;30542;47.928;2.138;2024-01-07T17:17:58;3.57;;;3.27;;
44824;SDS011;30542;47.928;2.138;2024-01-07T17:22:59;3.80;;;3.50;;
44824;SDS011;30542;47.928;2.138;2024-01-07T17:27:59;4.33;;;3.23;;
44824;SDS011;30542;47.928;2.138;2024-01-07T17:33:01;4.55;;;3.58;;
44824;SDS011;30542;47.928;2.138;2024-01-07T17:38:01;4.95;;;3.45;;
44824;SDS011;30542;47.928;2.138;2024-01-07T17:43:02;3.83;;;3.35;;
44824;SDS011;30542;47.928;2.138;2024-01-07T17:48:04;3.47;;;3.22;;
44824;SDS011;30542;47.928;2.138;2024-01-07T17:53:05;3.90;;;3.60;;
44824;SDS011;30542;47.928;2.138;2024-01-07T17:58:08;3.33;;;3.05;;
44824;SDS011;30542;47.928;2.138;2024-01-07T18:03:09;3.80;;;3.50;;
44824;SDS011;30542;47.928;2.138;2024-01-07T18:08:09;3.72;;;2.92;;
44824;SDS011;30542;47.928;2.138;2024-01-07T18:13:10;3.77;;;3.40;;
44824;SDS011;30542;47.928;2.138;2024-01-07T18:18:14;2.92;;;2.72;;
44824;SDS011;30542;47.928;2.138;2024-01-07T18:23:14;3.50;;;3.10;;
44824;SDS011;30542;47.928;2.138;2024-01-07T18:28:15;3.80;;;3.28;;
44824;SDS011;30542;47.928;2.138;2024-01-07T18:33:16;3.70;;;3.40;;
44824;SDS011;30542;47.928;2.138;2024-01-07T18:38:16;3.40;;;3.10;;
44824;SDS011;30542;47.928;2.138;2024-01-07T18:43:17;3.45;;;3.15;;
44824;SDS011;30542;47.928;2.138;2024-01-07T18:48:17;3.97;;;3.60;;
44824;SDS011;30542;47.928;2.138;2024-01-07T18:53:17;4.37;;;3.67;;
44824;SDS011;30542;47.928;2.138;2024-01-07T18:58:18;4.93;;;3.70;;
44824;SDS011;30542;47.928;2.138;2024-01-07T19:03:18;4.30;;;3.90;;
44824;SDS011;30542;47.928;2.138;2024-01-07T19:08:19;4.07;;;3.67;;
44824;SDS011;30542;47.928;2.138;2024-01-07T19:13:19;4.00;;;3.70;;
44824;SDS011;30542;47.928;2.138;2024-01-07T19:18:20;3.92;;;3.63;;
44824;SDS011;30542;47.928;2.138;2024-01-07T19:23:20;3.70;;;3.40;;
44824;SDS011;30542;47.928;2.138;2024-01-07T19:28:21;3.90;;;3.60;;
44824;SDS011;30542;47.928;2.138;2024-01-07T19:33:21;4.33;;;3.93;;
44824;SDS011;30542;47.928;2.138;2024-01-07T19:38:21;3.67;;;3.27;;
44824;SDS011;30542;47.928;2.138;2024-01-07T19:43:22;3.73;;;3.33;;
44824;SDS011;30542;47.928;2.138;2024-01-07T19:48:22;3.77;;;3.10;;
44824;SDS011;30542;47.928;2.138;2024-01-07T19:53:23;3.63;;;3.28;;
44824;SDS011;30542;47.928;2.138;2024-01-07T19:58:23;4.07;;;3.77;;
44824;SDS011;30542;47.928;2.138;2024-01-07T20:03:23;4.37;;;3.57;;
44824;SDS011;30542;47.928;2.138;2024-01-07T20:08:25;4.20;;;3.80;;
44824;SDS011;30542;47.928;2.138;2024-01-07T20:13:25;5.00;;;4.10;;
44824;SDS011;30542;47.928;2.138;2024-01-07T20:18:26;4.53;;;3.67;;
44824;SDS011;30542;47.928;2.138;2024-01-07T20:23:27;4.63;;;4.20;;
44824;SDS011;30542;47.928;2.138;2024-01-07T20:28:27;5.37;;;4.87;;
44824;SDS011;30542;47.928;2.138;2024-01-07T20:33:27;6.03;;;4.70;;
44824;SDS011;30542;47.928;2.138;2024-01-07T20:38:28;4.73;;;4.33;;
44824;SDS011;30542;47.928;2.138;2024-01-07T20:43:28;4.70;;;4.30;;
44824;SDS011;30542;47.928;2.138;2024-01-07T20:48:29;5.53;;;4.72;;
44824;SDS011;30542;47.928;2.138;2024-01-07T20:53:30;4.70;;;4.30;;
44824;SDS011;30542;47.928;2.138;2024-01-07T20:58:31;4.10;;;3.70;;
44824;SDS011;30542;47.928;2.138;2024-01-07T21:03:31;4.57;;;4.17;;
44824;SDS011;30542;47.928;2.138;2024-01-07T21:08:31;5.07;;;4.57;;
44824;SDS011;30542;47.928;2.138;2024-01-07T21:13:33;4.70;;;4.30;;
44824;SDS011;30542;47.928;2.138;2024-01-07T21:18:34;5.18;;;4.65;;
44824;SDS011;30542;47.928;2.138;2024-01-07T21:23:35;4.80;;;4.40;;
44824;SDS011;30542;47.928;2.138;2024-01-07T21:28:35;4.47;;;4.07;;
44824;SDS011;30542;47.928;2.138;2024-01-07T21:33:35;4.43;;;4.00;;
44824;SDS011;30542;47.928;2.138;2024-01-07T21:38:38;4.72;;;4.32;;
44824;SDS011;30542;47.928;2.138;2024-01-07T21:43:39;5.40;;;4.90;;
44824;SDS011;30542;47.928;2.138;2024-01-07T21:48:40;5.13;;;4.68;;
44824;SDS011;30542;47.928;2.138;2024-01-07T21:53:41;5.47;;;4.88;;
44824;SDS011;30542;47.928;2.138;2024-01-07T21:58:41;4.60;;;4.20;;
44824;SDS011;30542;47.928;2.138;2024-01-07T22:03:41;5.97;;;5.47;;
44824;SDS011;30542;47.928;2.138;2024-01-07T22:08:42;5.45;;;4.95;;
44824;SDS011;30542;47.928;2.138;2024-01-07T22:13:43;5.30;;;4.27;;
44824;SDS011;30542;47.928;2.138;2024-01-07T22:18:44;4.82;;;4.40;;
44824;SDS011;30542;47.928;2.138;2024-01-07T22:23:45;4.97;;;4.53;;
44824;SDS011;30542;47.928;2.138;2024-01-07T22:28:46;4.68;;;4.20;;
44824;SDS011;30542;47.928;2.138;2024-01-07T22:33:48;4.72;;;4.30;;
44824;SDS011;30542;47.928;2.138;2024-01-07T22:38:49;4.32;;;3.92;;
44824;SDS011;30542;47.928;2.138;2024-01-07T22:43:49;4.37;;;3.90;;
44824;SDS011;30542;47.928;2.138;2024-01-07T22:48:50;4.18;;;3.78;;
44824;SDS011;30542;47.928;2.138;2024-01-07T22:53:50;4.33;;;3.93;;
44824;SDS011;30542;47.928;2.138;2024-01-07T22:58:50;3.40;;;3.10;;
44824;SDS011;30542;47.928;2.138;2024-01-07T23:03:51;4.40;;;4.00;;
44824;SDS011;30542;47.928;2.138;2024-01-07T23:08:52;3.92;;;3.47;;
44824;SDS011;30542;47.928;2.138;2024-01-07T23:13:53;4.30;;;3.90;;
44824;SDS011;30542;47.928;2.138;2024-01-07T23:18:53;4.10;;;3.80;;
44824;SDS011;30542;47.928;2.138;2024-01-07T23:23:53;4.53;;;4.13;;
44824;SDS011;30542;47.928;2.138;2024-01-07T23:28:54;3.10;;;2.90;;
44824;SDS011;30542;47.928;2.138;2024-01-07T23:33:54;3.90;;;3.50;;
44824;SDS011;30542;47.928;2.138;2024-01-07T23:38:55;3.50;;;3.20;;
44824;SDS011;30542;47.928;2.138;2024-01-07T23:43:56;4.53;;;4.13;;
44824;SDS011;30542;47.928;2.138;2024-01-07T23:48:56;3.50;;;3.30;;
44824;SDS011;30542;47.928;2.138;2024-01-07T23:53:56;4.03;;;3.73;;
44824;SDS011;30542;47.928;2.138;2024-01-07T23:58:57;4.33;;;3.93;;
